sensor_id;sensor_type;location;lat;lon;timestamp;P1;durP1;ratioP1;P2;durP2;ratioP2
1076;SDS011;64114;48.726;9.370;2022-11-02T00:01:51;5.27;;;4.77;;
1076;SDS011;64114;48.726;9.370;2022-11-02T00:04:20;10.00;;;5.70;;
1076;SDS011;64114;48.726;9.370;2022-11-02T00:06:48;10.83;;;5.40;;
1076;SDS011;64114;48.726;9.370;2022-11-02T00:09:16;7.20;;;4.83;;
1076;SDS011;64114;48.726;9.370;2022-11-02T00:11:45;10.70;;;6.40;;
1076;SDS011;64114;48.726;9.370;2022-11-02T00:14:14;6.60;;;5.17;;
1076;SDS011;64114;48.726;9.370;2022-11-02T00:16:44;5.90;;;5.50;;
1076;SDS011;64114;48.726;9.370;2022-11-02T00:19:12;7.80;;;4.77;;
1076;SDS011;64114;48.726;9.370;2022-11-02T00:21:41;8.13;;;4.90;;
1076;SDS011;64114;48.726;9.370;2022-11-02T00:24:10;6.70;;;4.87;;
1076;SDS011;64114;48.726;9.370;2022-11-02T00:26:39;6.13;;;4.77;;
1076;SDS011;64114;48.726;9.370;2022-11-02T00:29:08;5.70;;;4.83;;
1076;SDS011;64114;48.726;9.370;2022-11-02T00:31:36;5.60;;;4.80;;
1076;SDS011;64114;48.726;9.370;2022-11-02T00:34:06;9.30;;;6.03;;
1076;SDS011;64114;48.726;9.370;2022-11-02T00:36:35;9.53;;;5.60;;
1076;SDS011;64114;48.726;9.370;2022-11-02T00:39:03;10.03;;;5.67;;
1076;SDS011;64114;48.726;9.370;2022-11-02T00:41:32;8.40;;;5.30;;
1076;SDS011;64114;48.726;9.370;2022-11-02T00:44:02;8.07;;;5.17;;
1076;SDS011;64114;48.726;9.370;2022-11-02T00:46:30;10.63;;;5.33;;
1076;SDS011;64114;48.726;9.370;2022-11-02T00:48:59;7.10;;;4.97;;
1076;SDS011;64114;48.726;9.370;2022-11-02T00:51:29;6.17;;;5.10;;
1076;SDS011;64114;48.726;9.370;2022-11-02T00:53:57;6.90;;;4.80;;
1076;SDS011;64114;48.726;9.370;2022-11-02T00:56:26;8.10;;;5.50;;
1076;SDS011;64114;48.726;9.370;2022-11-02T00:58:55;8.23;;;5.20;;
1076;SDS011;64114;48.726;9.370;2022-11-02T01:01:23;8.87;;;5.73;;
1076;SDS011;64114;48.726;9.370;2022-11-02T01:03:52;9.40;;;5.53;;
1076;SDS011;64114;48.726;9.370;2022-11-02T01:06:23;8.80;;;5.27;;
1076;SDS011;64114;48.726;9.370;2022-11-02T01:08:53;9.60;;;5.53;;
1076;SDS011;64114;48.726;9.370;2022-11-02T01:11:22;13.37;;;5.80;;
1076;SDS011;64114;48.726;9.370;2022-11-02T01:13:51;8.77;;;5.20;;
1076;SDS011;64114;48.726;9.370;2022-11-02T01:16:20;8.63;;;5.30;;
1076;SDS011;64114;48.726;9.370;2022-11-02T01:18:50;10.13;;;5.50;;
1076;SDS011;64114;48.726;9.370;2022-11-02T01:21:19;9.80;;;6.80;;
1076;SDS011;64114;48.726;9.370;2022-11-02T01:23:48;7.40;;;5.83;;
1076;SDS011;64114;48.726;9.370;2022-11-02T01:26:18;7.37;;;5.60;;
1076;SDS011;64114;48.726;9.370;2022-11-02T01:28:47;5.27;;;4.50;;
1076;SDS011;64114;48.726;9.370;2022-11-02T01:31:15;7.03;;;5.00;;
1076;SDS011;64114;48.726;9.370;2022-11-02T01:33:44;7.80;;;5.40;;
1076;SDS011;64114;48.726;9.370;2022-11-02T01:36:13;11.63;;;6.87;;
1076;SDS011;64114;48.726;9.370;2022-11-02T01:38:45;8.23;;;6.20;;
1076;SDS011;64114;48.726;9.370;2022-11-02T01:41:15;7.23;;;5.50;;
1076;SDS011;64114;48.726;9.370;2022-11-02T01:43:45;8.77;;;6.33;;
1076;SDS011;64114;48.726;9.370;2022-11-02T01:46:15;8.27;;;5.13;;
1076;SDS011;64114;48.726;9.370;2022-11-02T01:48:48;8.60;;;5.77;;
1076;SDS011;64114;48.726;9.370;2022-11-02T01:51:20;8.27;;;5.73;;
1076;SDS011;64114;48.726;9.370;2022-11-02T01:53:56;11.53;;;6.60;;
1076;SDS011;64114;48.726;9.370;2022-11-02T01:56:29;7.37;;;6.00;;
1076;SDS011;64114;48.726;9.370;2022-11-02T01:59:03;12.30;;;5.53;;
1076;SDS011;64114;48.726;9.370;2022-11-02T02:01:37;10.33;;;6.80;;
1076;SDS011;64114;48.726;9.370;2022-11-02T02:04:05;7.67;;;5.63;;
1076;SDS011;64114;48.726;9.370;2022-11-02T02:06:36;8.40;;;6.40;;
1076;SDS011;64114;48.726;9.370;2022-11-02T02:09:06;9.40;;;6.37;;
1076;SDS011;64114;48.726;9.370;2022-11-02T02:11:36;7.43;;;5.73;;
1076;SDS011;64114;48.726;9.370;2022-11-02T02:14:09;8.60;;;5.30;;
1076;SDS011;64114;48.726;9.370;2022-11-02T02:19:40;8.47;;;6.33;;
1076;SDS011;64114;48.726;9.370;2022-11-02T02:25:22;6.90;;;5.20;;
1076;SDS011;64114;48.726;9.370;2022-11-02T02:28:04;6.47;;;5.40;;
1076;SDS011;64114;48.726;9.370;2022-11-02T02:30:42;6.77;;;5.17;;
1076;SDS011;64114;48.726;9.370;2022-11-02T02:33:17;9.13;;;5.60;;
1076;SDS011;64114;48.726;9.370;2022-11-02T02:35:53;5.80;;;4.80;;
1076;SDS011;64114;48.726;9.370;2022-11-02T02:38:26;7.37;;;5.10;;
1076;SDS011;64114;48.726;9.370;2022-11-02T02:40:59;6.87;;;5.50;;
1076;SDS011;64114;48.726;9.370;2022-11-02T02:43:36;5.43;;;5.10;;
1076;SDS011;64114;48.726;9.370;2022-11-02T02:46:11;7.70;;;5.43;;
1076;SDS011;64114;48.726;9.370;2022-11-02T02:48:45;7.90;;;5.73;;
1076;SDS011;64114;48.726;9.370;2022-11-02T02:51:17;6.77;;;6.03;;
1076;SDS011;64114;48.726;9.370;2022-11-02T02:53:49;6.03;;;5.70;;
1076;SDS011;64114;48.726;9.370;2022-11-02T02:56:24;7.93;;;5.30;;
1076;SDS011;64114;48.726;9.370;2022-11-02T02:59:01;7.43;;;5.70;;
1076;SDS011;64114;48.726;9.370;2022-11-02T03:01:33;5.73;;;4.77;;
1076;SDS011;64114;48.726;9.370;2022-11-02T03:04:08;6.60;;;5.60;;
1076;SDS011;64114;48.726;9.370;2022-11-02T03:07:10;6.60;;;5.63;;
1076;SDS011;64114;48.726;9.370;2022-11-02T03:09:43;7.87;;;5.23;;
1076;SDS011;64114;48.726;9.370;2022-11-02T03:12:20;8.63;;;4.93;;
1076;SDS011;64114;48.726;9.370;2022-11-02T03:15:04;6.53;;;5.30;;
1076;SDS011;64114;48.726;9.370;2022-11-02T03:17:41;7.77;;;5.80;;
1076;SDS011;64114;48.726;9.370;2022-11-02T03:20:16;10.07;;;5.53;;
1076;SDS011;64114;48.726;9.370;2022-11-02T03:22:55;6.43;;;5.47;;
1076;SDS011;64114;48.726;9.370;2022-11-02T03:25:34;7.10;;;5.50;;
1076;SDS011;64114;48.726;9.370;2022-11-02T03:28:15;8.10;;;5.13;;
1076;SDS011;64114;48.726;9.370;2022-11-02T03:30:50;5.60;;;5.30;;
1076;SDS011;64114;48.726;9.370;2022-11-02T03:33:25;8.90;;;5.30;;
1076;SDS011;64114;48.726;9.370;2022-11-02T03:36:02;7.73;;;5.30;;
1076;SDS011;64114;48.726;9.370;2022-11-02T03:38:35;6.20;;;5.90;;
1076;SDS011;64114;48.726;9.370;2022-11-02T03:41:11;5.40;;;4.83;;
1076;SDS011;64114;48.726;9.370;2022-11-02T03:43:42;9.10;;;5.30;;
1076;SDS011;64114;48.726;9.370;2022-11-02T03:46:23;6.27;;;5.30;;
1076;SDS011;64114;48.726;9.370;2022-11-02T03:48:52;5.57;;;5.00;;
1076;SDS011;64114;48.726;9.370;2022-11-02T03:51:22;4.90;;;4.20;;
1076;SDS011;64114;48.726;9.370;2022-11-02T03:53:55;6.07;;;5.40;;
1076;SDS011;64114;48.726;9.370;2022-11-02T03:56:30;6.10;;;5.80;;
1076;SDS011;64114;48.726;9.370;2022-11-02T03:59:03;7.03;;;5.03;;
1076;SDS011;64114;48.726;9.370;2022-11-02T04:01:32;6.30;;;5.47;;
1076;SDS011;64114;48.726;9.370;2022-11-02T04:04:08;6.20;;;5.20;;
1076;SDS011;64114;48.726;9.370;2022-11-02T04:06:38;8.70;;;5.53;;
1076;SDS011;64114;48.726;9.370;2022-11-02T04:09:09;6.63;;;5.60;;
1076;SDS011;64114;48.726;9.370;2022-11-02T04:11:39;7.70;;;5.00;;
1076;SDS011;64114;48.726;9.370;2022-11-02T04:14:27;6.50;;;5.23;;
1076;SDS011;64114;48.726;9.370;2022-11-02T04:17:16;7.57;;;5.83;;
1076;SDS011;64114;48.726;9.370;2022-11-02T04:20:09;8.07;;;6.00;;
1076;SDS011;64114;48.726;9.370;2022-11-02T04:22:37;9.10;;;5.97;;
1076;SDS011;64114;48.726;9.370;2022-11-02T04:25:24;5.77;;;5.50;;
1076;SDS011;64114;48.726;9.370;2022-11-02T04:28:14;6.27;;;5.37;;
1076;SDS011;64114;48.726;9.370;2022-11-02T04:30:47;6.57;;;5.27;;
1076;SDS011;64114;48.726;9.370;2022-11-02T04:33:18;7.00;;;5.43;;
1076;SDS011;64114;48.726;9.370;2022-11-02T04:36:09;5.67;;;5.00;;
1076;SDS011;64114;48.726;9.370;2022-11-02T04:38:38;5.60;;;4.80;;
1076;SDS011;64114;48.726;9.370;2022-11-02T04:41:32;8.63;;;6.40;;
1076;SDS011;64114;48.726;9.370;2022-11-02T04:44:17;8.63;;;6.73;;
1076;SDS011;64114;48.726;9.370;2022-11-02T04:46:59;6.00;;;5.37;;
1076;SDS011;64114;48.726;9.370;2022-11-02T04:49:37;7.33;;;5.43;;
1076;SDS011;64114;48.726;9.370;2022-11-02T04:52:10;5.80;;;5.50;;
1076;SDS011;64114;48.726;9.370;2022-11-02T04:54:44;6.53;;;5.10;;
1076;SDS011;64114;48.726;9.370;2022-11-02T04:57:14;6.07;;;5.80;;
1076;SDS011;64114;48.726;9.370;2022-11-02T04:59:42;8.20;;;5.90;;
1076;SDS011;64114;48.726;9.370;2022-11-02T05:02:12;6.03;;;5.50;;
1076;SDS011;64114;48.726;9.370;2022-11-02T05:04:43;8.97;;;5.80;;
1076;SDS011;64114;48.726;9.370;2022-11-02T05:07:13;8.10;;;6.10;;
1076;SDS011;64114;48.726;9.370;2022-11-02T05:09:41;6.73;;;6.40;;
1076;SDS011;64114;48.726;9.370;2022-11-02T05:12:11;6.43;;;5.40;;
1076;SDS011;64114;48.726;9.370;2022-11-02T05:14:39;6.40;;;5.63;;
1076;SDS011;64114;48.726;9.370;2022-11-02T05:17:07;7.20;;;6.20;;
1076;SDS011;64114;48.726;9.370;2022-11-02T05:19:37;6.23;;;5.80;;
1076;SDS011;64114;48.726;9.370;2022-11-02T05:22:07;7.47;;;6.23;;
1076;SDS011;64114;48.726;9.370;2022-11-02T05:24:36;8.00;;;7.40;;
1076;SDS011;64114;48.726;9.370;2022-11-02T05:27:06;10.53;;;6.90;;
1076;SDS011;64114;48.726;9.370;2022-11-02T05:29:36;11.60;;;8.50;;
1076;SDS011;64114;48.726;9.370;2022-11-02T05:32:04;11.10;;;7.77;;
1076;SDS011;64114;48.726;9.370;2022-11-02T05:34:32;9.63;;;7.17;;
1076;SDS011;64114;48.726;9.370;2022-11-02T05:37:01;11.67;;;8.10;;
1076;SDS011;64114;48.726;9.370;2022-11-02T05:39:31;12.60;;;7.57;;
1076;SDS011;64114;48.726;9.370;2022-11-02T05:42:00;7.90;;;6.73;;
1076;SDS011;64114;48.726;9.370;2022-11-02T05:44:29;6.90;;;6.07;;
1076;SDS011;64114;48.726;9.370;2022-11-02T05:46:57;11.00;;;7.03;;
1076;SDS011;64114;48.726;9.370;2022-11-02T05:49:26;6.73;;;6.33;;
1076;SDS011;64114;48.726;9.370;2022-11-02T05:51:54;8.30;;;6.57;;
1076;SDS011;64114;48.726;9.370;2022-11-02T05:54:22;10.60;;;7.13;;
1076;SDS011;64114;48.726;9.370;2022-11-02T05:56:52;10.43;;;7.60;;
1076;SDS011;64114;48.726;9.370;2022-11-02T05:59:21;8.90;;;6.10;;
1076;SDS011;64114;48.726;9.370;2022-11-02T06:01:50;7.77;;;6.30;;
1076;SDS011;64114;48.726;9.370;2022-11-02T06:04:18;7.43;;;6.97;;
1076;SDS011;64114;48.726;9.370;2022-11-02T06:06:46;8.53;;;6.80;;
1076;SDS011;64114;48.726;9.370;2022-11-02T06:09:14;8.13;;;6.27;;
1076;SDS011;64114;48.726;9.370;2022-11-02T06:11:42;11.23;;;7.80;;
1076;SDS011;64114;48.726;9.370;2022-11-02T06:14:11;10.00;;;7.90;;
1076;SDS011;64114;48.726;9.370;2022-11-02T06:16:39;8.27;;;6.73;;
1076;SDS011;64114;48.726;9.370;2022-11-02T06:19:07;10.30;;;6.70;;
1076;SDS011;64114;48.726;9.370;2022-11-02T06:21:35;8.53;;;7.17;;
1076;SDS011;64114;48.726;9.370;2022-11-02T06:24:03;8.53;;;7.30;;
1076;SDS011;64114;48.726;9.370;2022-11-02T06:26:31;7.13;;;6.47;;
1076;SDS011;64114;48.726;9.370;2022-11-02T06:28:58;7.93;;;7.00;;
1076;SDS011;64114;48.726;9.370;2022-11-02T06:31:28;8.90;;;7.13;;
1076;SDS011;64114;48.726;9.370;2022-11-02T06:33:56;11.07;;;7.13;;
1076;SDS011;64114;48.726;9.370;2022-11-02T06:36:24;9.40;;;7.00;;
1076;SDS011;64114;48.726;9.370;2022-11-02T06:38:52;9.27;;;6.93;;
1076;SDS011;64114;48.726;9.370;2022-11-02T06:41:19;10.20;;;7.60;;
1076;SDS011;64114;48.726;9.370;2022-11-02T06:43:47;8.97;;;6.90;;
1076;SDS011;64114;48.726;9.370;2022-11-02T06:46:15;18.90;;;7.60;;
1076;SDS011;64114;48.726;9.370;2022-11-02T06:48:46;11.97;;;6.60;;
1076;SDS011;64114;48.726;9.370;2022-11-02T06:51:14;8.93;;;6.60;;
1076;SDS011;64114;48.726;9.370;2022-11-02T06:53:41;7.57;;;5.60;;
1076;SDS011;64114;48.726;9.370;2022-11-02T06:56:09;8.37;;;6.03;;
1076;SDS011;64114;48.726;9.370;2022-11-02T06:58:38;7.47;;;6.47;;
1076;SDS011;64114;48.726;9.370;2022-11-02T07:01:06;10.63;;;6.77;;
1076;SDS011;64114;48.726;9.370;2022-11-02T07:03:34;9.67;;;6.97;;
1076;SDS011;64114;48.726;9.370;2022-11-02T07:06:04;7.30;;;5.80;;
1076;SDS011;64114;48.726;9.370;2022-11-02T07:08:39;5.67;;;5.37;;
1076;SDS011;64114;48.726;9.370;2022-11-02T07:11:11;7.60;;;5.20;;
1076;SDS011;64114;48.726;9.370;2022-11-02T07:13:39;8.13;;;5.50;;
1076;SDS011;64114;48.726;9.370;2022-11-02T07:16:07;8.27;;;5.60;;
1076;SDS011;64114;48.726;9.370;2022-11-02T07:18:35;8.60;;;5.80;;
1076;SDS011;64114;48.726;9.370;2022-11-02T07:21:05;8.57;;;6.50;;
1076;SDS011;64114;48.726;9.370;2022-11-02T07:23:36;8.80;;;6.40;;
1076;SDS011;64114;48.726;9.370;2022-11-02T07:26:06;8.80;;;5.73;;
1076;SDS011;64114;48.726;9.370;2022-11-02T07:28:34;13.03;;;7.90;;
1076;SDS011;64114;48.726;9.370;2022-11-02T07:31:04;12.60;;;6.93;;
1076;SDS011;64114;48.726;9.370;2022-11-02T07:33:32;10.37;;;7.10;;
1076;SDS011;64114;48.726;9.370;2022-11-02T07:36:01;14.40;;;8.30;;
1076;SDS011;64114;48.726;9.370;2022-11-02T07:38:30;12.17;;;7.57;;
1076;SDS011;64114;48.726;9.370;2022-11-02T07:40:58;11.30;;;7.77;;
1076;SDS011;64114;48.726;9.370;2022-11-02T07:43:27;13.07;;;8.80;;
1076;SDS011;64114;48.726;9.370;2022-11-02T07:46:03;12.00;;;7.60;;
1076;SDS011;64114;48.726;9.370;2022-11-02T07:48:31;13.33;;;8.90;;
1076;SDS011;64114;48.726;9.370;2022-11-02T07:51:01;10.93;;;8.10;;
1076;SDS011;64114;48.726;9.370;2022-11-02T07:53:31;11.70;;;8.80;;
1076;SDS011;64114;48.726;9.370;2022-11-02T07:55:58;11.40;;;7.20;;
1076;SDS011;64114;48.726;9.370;2022-11-02T07:58:27;11.47;;;8.40;;
1076;SDS011;64114;48.726;9.370;2022-11-02T08:00:56;15.10;;;7.77;;
1076;SDS011;64114;48.726;9.370;2022-11-02T08:03:25;14.30;;;7.53;;
1076;SDS011;64114;48.726;9.370;2022-11-02T08:05:54;9.00;;;7.57;;
1076;SDS011;64114;48.726;9.370;2022-11-02T08:08:22;11.13;;;7.93;;
1076;SDS011;64114;48.726;9.370;2022-11-02T08:10:52;11.77;;;8.40;;
1076;SDS011;64114;48.726;9.370;2022-11-02T08:13:21;10.40;;;8.03;;
1076;SDS011;64114;48.726;9.370;2022-11-02T08:15:51;14.40;;;7.83;;
1076;SDS011;64114;48.726;9.370;2022-11-02T08:18:20;10.20;;;7.90;;
1076;SDS011;64114;48.726;9.370;2022-11-02T08:20:50;11.30;;;7.67;;
1076;SDS011;64114;48.726;9.370;2022-11-02T08:23:22;11.57;;;6.40;;
1076;SDS011;64114;48.726;9.370;2022-11-02T08:25:52;11.80;;;7.00;;
1076;SDS011;64114;48.726;9.370;2022-11-02T08:28:22;10.73;;;6.60;;
1076;SDS011;64114;48.726;9.370;2022-11-02T08:30:51;7.13;;;6.20;;
1076;SDS011;64114;48.726;9.370;2022-11-02T08:33:20;9.83;;;7.17;;
1076;SDS011;64114;48.726;9.370;2022-11-02T08:35:59;9.00;;;6.40;;
1076;SDS011;64114;48.726;9.370;2022-11-02T08:38:28;11.93;;;6.77;;
1076;SDS011;64114;48.726;9.370;2022-11-02T08:40:55;10.50;;;6.30;;
1076;SDS011;64114;48.726;9.370;2022-11-02T08:43:23;9.70;;;6.70;;
1076;SDS011;64114;48.726;9.370;2022-11-02T08:45:51;7.30;;;5.47;;
1076;SDS011;64114;48.726;9.370;2022-11-02T08:48:39;6.10;;;4.80;;
1076;SDS011;64114;48.726;9.370;2022-11-02T08:51:08;7.97;;;5.17;;
1076;SDS011;64114;48.726;9.370;2022-11-02T08:53:36;7.33;;;5.00;;
1076;SDS011;64114;48.726;9.370;2022-11-02T08:56:04;8.03;;;4.97;;
1076;SDS011;64114;48.726;9.370;2022-11-02T08:58:31;6.00;;;4.53;;
1076;SDS011;64114;48.726;9.370;2022-11-02T09:00:59;4.30;;;3.97;;
1076;SDS011;64114;48.726;9.370;2022-11-02T09:03:27;5.40;;;4.77;;
1076;SDS011;64114;48.726;9.370;2022-11-02T09:05:55;7.00;;;4.30;;
1076;SDS011;64114;48.726;9.370;2022-11-02T09:08:25;6.37;;;4.10;;
1076;SDS011;64114;48.726;9.370;2022-11-02T09:10:56;5.77;;;4.40;;
1076;SDS011;64114;48.726;9.370;2022-11-02T09:13:24;4.40;;;3.63;;
1076;SDS011;64114;48.726;9.370;2022-11-02T09:15:53;3.97;;;3.00;;
1076;SDS011;64114;48.726;9.370;2022-11-02T09:18:21;8.07;;;4.80;;
1076;SDS011;64114;48.726;9.370;2022-11-02T09:20:50;8.40;;;3.80;;
1076;SDS011;64114;48.726;9.370;2022-11-02T09:23:18;3.70;;;3.13;;
1076;SDS011;64114;48.726;9.370;2022-11-02T09:25:48;5.93;;;3.90;;
1076;SDS011;64114;48.726;9.370;2022-11-02T09:28:16;3.90;;;3.40;;
1076;SDS011;64114;48.726;9.370;2022-11-02T09:30:44;6.40;;;3.40;;
1076;SDS011;64114;48.726;9.370;2022-11-02T09:33:12;6.37;;;4.20;;
1076;SDS011;64114;48.726;9.370;2022-11-02T09:35:41;5.23;;;3.37;;
1076;SDS011;64114;48.726;9.370;2022-11-02T09:38:08;5.10;;;3.40;;
1076;SDS011;64114;48.726;9.370;2022-11-02T09:40:38;5.50;;;3.40;;
1076;SDS011;64114;48.726;9.370;2022-11-02T09:43:10;3.93;;;3.50;;
1076;SDS011;64114;48.726;9.370;2022-11-02T09:45:43;5.13;;;3.60;;
1076;SDS011;64114;48.726;9.370;2022-11-02T09:48:15;3.97;;;3.17;;
1076;SDS011;64114;48.726;9.370;2022-11-02T09:50:54;8.67;;;3.77;;
1076;SDS011;64114;48.726;9.370;2022-11-02T09:53:30;10.03;;;4.53;;
1076;SDS011;64114;48.726;9.370;2022-11-02T09:55:59;5.30;;;3.20;;
1076;SDS011;64114;48.726;9.370;2022-11-02T09:58:32;5.50;;;2.83;;
1076;SDS011;64114;48.726;9.370;2022-11-02T10:01:01;4.80;;;3.00;;
1076;SDS011;64114;48.726;9.370;2022-11-02T10:03:34;4.23;;;2.53;;
1076;SDS011;64114;48.726;9.370;2022-11-02T10:06:07;4.10;;;2.87;;
1076;SDS011;64114;48.726;9.370;2022-11-02T10:08:41;3.27;;;1.73;;
1076;SDS011;64114;48.726;9.370;2022-11-02T10:11:14;3.03;;;2.10;;
1076;SDS011;64114;48.726;9.370;2022-11-02T10:16:25;4.30;;;2.97;;
1076;SDS011;64114;48.726;9.370;2022-11-02T10:18:54;9.00;;;2.47;;
1076;SDS011;64114;48.726;9.370;2022-11-02T10:21:23;2.70;;;1.43;;
1076;SDS011;64114;48.726;9.370;2022-11-02T10:23:52;4.53;;;1.33;;
1076;SDS011;64114;48.726;9.370;2022-11-02T10:26:21;6.17;;;1.60;;
1076;SDS011;64114;48.726;9.370;2022-11-02T10:28:50;3.70;;;1.80;;
1076;SDS011;64114;48.726;9.370;2022-11-02T10:31:24;3.13;;;1.80;;
1076;SDS011;64114;48.726;9.370;2022-11-02T10:33:53;4.10;;;1.60;;
1076;SDS011;64114;48.726;9.370;2022-11-02T10:36:28;5.13;;;1.47;;
1076;SDS011;64114;48.726;9.370;2022-11-02T10:39:02;3.80;;;1.37;;
1076;SDS011;64114;48.726;9.370;2022-11-02T10:41:42;3.23;;;1.47;;
1076;SDS011;64114;48.726;9.370;2022-11-02T10:44:19;2.30;;;1.30;;
1076;SDS011;64114;48.726;9.370;2022-11-02T10:46:55;1.40;;;1.40;;
1076;SDS011;64114;48.726;9.370;2022-11-02T10:49:30;4.07;;;1.23;;
1076;SDS011;64114;48.726;9.370;2022-11-02T10:52:03;2.60;;;1.20;;
1076;SDS011;64114;48.726;9.370;2022-11-02T10:54:32;7.53;;;1.93;;
1076;SDS011;64114;48.726;9.370;2022-11-02T10:57:00;3.40;;;1.30;;
1076;SDS011;64114;48.726;9.370;2022-11-02T10:59:34;4.73;;;1.00;;
1076;SDS011;64114;48.726;9.370;2022-11-02T11:02:04;3.70;;;1.40;;
1076;SDS011;64114;48.726;9.370;2022-11-02T11:04:36;3.07;;;1.10;;
1076;SDS011;64114;48.726;9.370;2022-11-02T11:07:05;4.30;;;1.17;;
1076;SDS011;64114;48.726;9.370;2022-11-02T11:09:34;4.10;;;1.50;;
1076;SDS011;64114;48.726;9.370;2022-11-02T11:12:12;5.10;;;1.97;;
1076;SDS011;64114;48.726;9.370;2022-11-02T11:14:46;3.30;;;1.10;;
1076;SDS011;64114;48.726;9.370;2022-11-02T11:17:36;4.60;;;1.60;;
1076;SDS011;64114;48.726;9.370;2022-11-02T11:20:27;3.00;;;1.40;;
1076;SDS011;64114;48.726;9.370;2022-11-02T11:23:07;2.53;;;1.10;;
1076;SDS011;64114;48.726;9.370;2022-11-02T11:25:35;3.97;;;1.10;;
1076;SDS011;64114;48.726;9.370;2022-11-02T11:28:12;3.70;;;1.23;;
1076;SDS011;64114;48.726;9.370;2022-11-02T11:30:47;3.30;;;1.50;;
1076;SDS011;64114;48.726;9.370;2022-11-02T11:33:28;5.13;;;1.63;;
1076;SDS011;64114;48.726;9.370;2022-11-02T11:35:57;2.57;;;1.17;;
1076;SDS011;64114;48.726;9.370;2022-11-02T11:38:25;2.60;;;1.20;;
1076;SDS011;64114;48.726;9.370;2022-11-02T11:40:54;5.33;;;1.70;;
1076;SDS011;64114;48.726;9.370;2022-11-02T11:43:23;6.83;;;1.57;;
1076;SDS011;64114;48.726;9.370;2022-11-02T11:45:54;4.30;;;1.77;;
1076;SDS011;64114;48.726;9.370;2022-11-02T11:48:34;2.40;;;1.20;;
1076;SDS011;64114;48.726;9.370;2022-11-02T11:51:02;2.17;;;1.00;;
1076;SDS011;64114;48.726;9.370;2022-11-02T11:53:31;3.50;;;1.53;;
1076;SDS011;64114;48.726;9.370;2022-11-02T11:56:00;4.43;;;1.27;;
1076;SDS011;64114;48.726;9.370;2022-11-02T11:58:28;4.20;;;1.17;;
1076;SDS011;64114;48.726;9.370;2022-11-02T12:01:05;4.67;;;0.97;;
1076;SDS011;64114;48.726;9.370;2022-11-02T12:06:22;2.37;;;1.20;;
1076;SDS011;64114;48.726;9.370;2022-11-02T12:08:52;2.87;;;1.87;;
1076;SDS011;64114;48.726;9.370;2022-11-02T12:11:32;3.70;;;0.87;;
1076;SDS011;64114;48.726;9.370;2022-11-02T12:14:13;1.97;;;1.20;;
1076;SDS011;64114;48.726;9.370;2022-11-02T12:16:51;2.33;;;1.20;;
1076;SDS011;64114;48.726;9.370;2022-11-02T12:19:24;2.20;;;1.20;;
1076;SDS011;64114;48.726;9.370;2022-11-02T12:22:02;2.70;;;1.20;;
1076;SDS011;64114;48.726;9.370;2022-11-02T12:24:42;4.00;;;1.07;;
1076;SDS011;64114;48.726;9.370;2022-11-02T12:27:17;2.30;;;1.20;;
1076;SDS011;64114;48.726;9.370;2022-11-02T12:29:49;1.73;;;0.97;;
1076;SDS011;64114;48.726;9.370;2022-11-02T12:32:26;7.50;;;2.00;;
1076;SDS011;64114;48.726;9.370;2022-11-02T12:35:03;4.17;;;1.30;;
1076;SDS011;64114;48.726;9.370;2022-11-02T12:38:07;3.90;;;1.33;;
1076;SDS011;64114;48.726;9.370;2022-11-02T12:40:40;4.00;;;1.67;;
1076;SDS011;64114;48.726;9.370;2022-11-02T12:43:18;3.93;;;1.30;;
1076;SDS011;64114;48.726;9.370;2022-11-02T12:45:51;1.40;;;0.83;;
1076;SDS011;64114;48.726;9.370;2022-11-02T12:48:22;3.50;;;1.43;;
1076;SDS011;64114;48.726;9.370;2022-11-02T12:50:54;3.17;;;1.20;;
1076;SDS011;64114;48.726;9.370;2022-11-02T12:56:07;1.93;;;1.13;;
1076;SDS011;64114;48.726;9.370;2022-11-02T12:58:38;6.83;;;1.40;;
1076;SDS011;64114;48.726;9.370;2022-11-02T13:01:08;3.43;;;1.40;;
1076;SDS011;64114;48.726;9.370;2022-11-02T13:03:42;2.73;;;1.37;;
1076;SDS011;64114;48.726;9.370;2022-11-02T13:06:12;3.57;;;1.27;;
1076;SDS011;64114;48.726;9.370;2022-11-02T13:08:41;2.20;;;1.43;;
1076;SDS011;64114;48.726;9.370;2022-11-02T13:11:14;2.63;;;0.90;;
1076;SDS011;64114;48.726;9.370;2022-11-02T13:13:44;3.70;;;1.20;;
1076;SDS011;64114;48.726;9.370;2022-11-02T13:16:13;4.67;;;1.73;;
1076;SDS011;64114;48.726;9.370;2022-11-02T13:18:42;4.23;;;1.90;;
1076;SDS011;64114;48.726;9.370;2022-11-02T13:21:11;3.47;;;1.63;;
1076;SDS011;64114;48.726;9.370;2022-11-02T13:23:42;5.00;;;1.70;;
1076;SDS011;64114;48.726;9.370;2022-11-02T13:26:11;2.13;;;1.30;;
1076;SDS011;64114;48.726;9.370;2022-11-02T13:28:42;1.57;;;0.90;;
1076;SDS011;64114;48.726;9.370;2022-11-02T13:31:11;8.30;;;1.53;;
1076;SDS011;64114;48.726;9.370;2022-11-02T13:33:42;4.03;;;1.67;;
1076;SDS011;64114;48.726;9.370;2022-11-02T13:36:11;2.83;;;1.80;;
1076;SDS011;64114;48.726;9.370;2022-11-02T13:38:41;3.30;;;1.17;;
1076;SDS011;64114;48.726;9.370;2022-11-02T13:41:16;6.03;;;1.40;;
1076;SDS011;64114;48.726;9.370;2022-11-02T13:43:49;3.77;;;1.43;;
1076;SDS011;64114;48.726;9.370;2022-11-02T13:46:31;3.10;;;1.10;;
1076;SDS011;64114;48.726;9.370;2022-11-02T13:49:02;2.40;;;1.33;;
1076;SDS011;64114;48.726;9.370;2022-11-02T13:51:33;4.73;;;1.60;;
1076;SDS011;64114;48.726;9.370;2022-11-02T13:54:04;1.13;;;0.90;;
1076;SDS011;64114;48.726;9.370;2022-11-02T13:56:34;4.77;;;1.60;;
1076;SDS011;64114;48.726;9.370;2022-11-02T13:59:04;3.27;;;1.37;;
1076;SDS011;64114;48.726;9.370;2022-11-02T14:01:33;3.90;;;0.90;;
1076;SDS011;64114;48.726;9.370;2022-11-02T14:04:04;4.20;;;1.30;;
1076;SDS011;64114;48.726;9.370;2022-11-02T14:06:41;1.57;;;1.30;;
1076;SDS011;64114;48.726;9.370;2022-11-02T14:09:10;2.63;;;1.20;;
1076;SDS011;64114;48.726;9.370;2022-11-02T14:11:47;1.37;;;0.80;;
1076;SDS011;64114;48.726;9.370;2022-11-02T14:14:18;2.33;;;1.33;;
1076;SDS011;64114;48.726;9.370;2022-11-02T14:16:56;2.30;;;1.73;;
1076;SDS011;64114;48.726;9.370;2022-11-02T14:19:28;4.00;;;2.37;;
1076;SDS011;64114;48.726;9.370;2022-11-02T14:22:07;1.37;;;1.10;;
1076;SDS011;64114;48.726;9.370;2022-11-02T14:24:51;2.80;;;1.10;;
1076;SDS011;64114;48.726;9.370;2022-11-02T14:27:28;1.70;;;1.07;;
1076;SDS011;64114;48.726;9.370;2022-11-02T14:29:58;1.97;;;1.27;;
1076;SDS011;64114;48.726;9.370;2022-11-02T14:32:32;1.60;;;0.93;;
1076;SDS011;64114;48.726;9.370;2022-11-02T14:35:12;5.93;;;3.23;;
1076;SDS011;64114;48.726;9.370;2022-11-02T14:37:46;4.20;;;1.30;;
1076;SDS011;64114;48.726;9.370;2022-11-02T14:40:19;3.20;;;0.97;;
1076;SDS011;64114;48.726;9.370;2022-11-02T14:45:50;2.63;;;1.00;;
1076;SDS011;64114;48.726;9.370;2022-11-02T14:48:20;3.47;;;1.50;;
1076;SDS011;64114;48.726;9.370;2022-11-02T14:50:56;2.27;;;1.30;;
1076;SDS011;64114;48.726;9.370;2022-11-02T14:53:25;2.80;;;1.70;;
1076;SDS011;64114;48.726;9.370;2022-11-02T14:55:54;4.80;;;1.73;;
1076;SDS011;64114;48.726;9.370;2022-11-02T14:58:23;4.87;;;1.27;;
1076;SDS011;64114;48.726;9.370;2022-11-02T15:00:57;5.33;;;1.50;;
1076;SDS011;64114;48.726;9.370;2022-11-02T15:03:27;3.47;;;1.83;;
1076;SDS011;64114;48.726;9.370;2022-11-02T15:05:57;4.53;;;2.30;;
1076;SDS011;64114;48.726;9.370;2022-11-02T15:08:29;4.73;;;1.50;;
1076;SDS011;64114;48.726;9.370;2022-11-02T15:10:57;5.90;;;2.00;;
1076;SDS011;64114;48.726;9.370;2022-11-02T15:13:33;6.93;;;2.20;;
1076;SDS011;64114;48.726;9.370;2022-11-02T15:16:15;3.47;;;1.33;;
1076;SDS011;64114;48.726;9.370;2022-11-02T15:18:43;2.30;;;1.20;;
1076;SDS011;64114;48.726;9.370;2022-11-02T15:21:21;4.40;;;2.10;;
1076;SDS011;64114;48.726;9.370;2022-11-02T15:23:51;4.20;;;1.80;;
1076;SDS011;64114;48.726;9.370;2022-11-02T15:26:22;3.27;;;1.70;;
1076;SDS011;64114;48.726;9.370;2022-11-02T15:28:50;5.17;;;1.63;;
1076;SDS011;64114;48.726;9.370;2022-11-02T15:31:22;5.23;;;1.77;;
1076;SDS011;64114;48.726;9.370;2022-11-02T15:33:52;2.20;;;1.17;;
1076;SDS011;64114;48.726;9.370;2022-11-02T15:36:21;3.70;;;1.70;;
1076;SDS011;64114;48.726;9.370;2022-11-02T15:38:51;4.27;;;1.60;;
1076;SDS011;64114;48.726;9.370;2022-11-02T15:41:20;6.43;;;1.60;;
1076;SDS011;64114;48.726;9.370;2022-11-02T15:43:54;2.43;;;1.40;;
1076;SDS011;64114;48.726;9.370;2022-11-02T15:46:30;4.53;;;1.40;;